BITM weather

Þórsmörk Airport
Þórsmörk, Southern Region, Iceland

Public forecast

Using degrees Celsius for public forecast. Weather courtesy of forecast.io.

Closest aviation weather report (METAR) to Þórsmörk Airport

Closest report is Vestmannaeyjar Airport, 24.9 nm (46.1 km) SW. Retrieved 2019/10/19 12:00 UTC (2 hours ago):

BIVM 191200Z 19003KT 9999 SCT030 06/05 Q1020

Closest aviation forecast (TAF) to Þórsmörk Airport

Closest forecast is Reykjavik Airport, 68.1 nm (126.1 km) WNW. Retrieved 2019/10/19 15:09 UTC (0 seconds ago):

TAF BIRK 191304Z 1915/2015 24006KT 9999 FEW015 SCT025 BKN038 TX07/2015Z TN03/2006Z BECMG 2010/2012 18016KT 8000 RA BKN015 OVC025 TEMPO 2013/2015 4000 RA BR OVC010